Time;durP1;ratioP1;P1;durP2;ratioP2;P2;SDS_P1;SDS_P2;PMS_P1;PMS_P2;Temp;Humidity;BMP_temperature;BMP_pressure;BME280_temperature;BME280_humidity;BME280_pressure;Samples;Min_cycle;Max_cycle;Signal;HPM_P1;HPM_P2
2022/08/12 00:43:05;;;;;;;5.15;4.75;;;;;;;;;;5101589;28;20058;-46
2022/08/12 00:46:29;;;;;;;8.88;4.55;;;;;;;;;;5106483;28;20174;-47
2022/08/12 00:48:15;;;;;;;6.00;4.50;;;;;;;;;;5106959;28;20067;-51
2022/08/12 00:50:41;;;;;;;4.20;3.80;;;;;;;;;;5105728;28;20161;-48
2022/08/12 00:53:08;;;;;;;6.47;5.45;;;;;;;;;;5105197;28;20991;-45
2022/08/12 00:55:33;;;;;;;6.22;5.63;;;;;;;;;;5105013;28;20047;-51
2022/08/12 00:58:02;;;;;;;6.32;4.85;;;;;;;;;;5107029;28;20043;-44
2022/08/12 01:00:28;;;;;;;5.13;4.63;;;;;;;;;;5106749;28;20181;-47
2022/08/12 01:02:57;;;;;;;5.95;4.70;;;;;;;;;;5107947;28;20599;-46
2022/08/12 01:13:43;;;;;;;7.20;5.18;;;;;;;;;;5106856;28;20065;-47
2022/08/12 01:16:10;;;;;;;5.75;4.85;;;;;;;;;;5104161;28;20059;-49
2022/08/12 01:18:38;;;;;;;5.65;5.10;;;;;;;;;;5106322;28;20042;-44
2022/08/12 01:21:10;;;;;;;5.53;4.80;;;;;;;;;;5102262;28;20055;-48
2022/08/12 01:23:39;;;;;;;6.05;4.93;;;;;;;;;;5107145;28;20039;-51
2022/08/12 01:26:06;;;;;;;4.90;4.45;;;;;;;;;;5104900;28;20073;-52
2022/08/12 01:28:33;;;;;;;9.75;5.63;;;;;;;;;;5106428;28;20074;-53
2022/08/12 01:31:01;;;;;;;7.00;6.30;;;;;;;;;;5107385;28;20177;-51
2022/08/12 01:33:28;;;;;;;5.47;4.60;;;;;;;;;;5106335;28;20451;-52
2022/08/12 01:35:57;;;;;;;7.07;6.22;;;;;;;;;;5105166;28;20043;-50
2022/08/12 01:38:23;;;;;;;5.97;5.38;;;;;;;;;;5106505;28;20134;-51
2022/08/12 01:40:50;;;;;;;8.48;5.35;;;;;;;;;;5106982;28;20416;-53
2022/08/12 01:43:20;;;;;;;4.93;4.38;;;;;;;;;;5106992;28;20050;-50
2022/08/12 01:46:05;;;;;;;7.25;5.65;;;;;;;;;;5106391;28;20052;-50
2022/08/12 01:48:31;;;;;;;8.43;5.55;;;;;;;;;;5106077;28;20048;-53
2022/08/12 01:51:03;;;;;;;5.88;5.38;;;;;;;;;;5107243;28;20051;-50
2022/08/12 01:53:45;;;;;;;9.73;5.63;;;;;;;;;;5105558;28;20039;-50
2022/08/12 01:56:13;;;;;;;5.15;4.68;;;;;;;;;;5104407;28;20065;-50
2022/08/12 02:01:29;;;;;;;10.35;5.97;;;;;;;;;;5106330;28;20165;-50
2022/08/12 02:12:56;;;;;;;5.43;4.90;;;;;;;;;;5091267;28;20074;-52
2022/08/12 02:15:24;;;;;;;6.43;5.82;;;;;;;;;;5107715;28;20617;-46
2022/08/12 02:17:59;;;;;;;11.18;5.05;;;;;;;;;;5110922;28;20039;-48
2022/08/12 02:20:24;;;;;;;11.85;6.05;;;;;;;;;;5109961;28;20056;-50
2022/08/12 02:22:50;;;;;;;10.18;6.38;;;;;;;;;;5110177;28;20051;-48
2022/08/12 02:25:15;;;;;;;6.22;4.95;;;;;;;;;;5110591;28;20048;-52
2022/08/12 02:27:49;;;;;;;8.13;5.20;;;;;;;;;;5109595;28;20063;-48
2022/08/12 02:30:17;;;;;;;7.07;6.03;;;;;;;;;;5110564;28;20047;-52
2022/08/12 02:32:43;;;;;;;14.63;6.18;;;;;;;;;;5107280;28;20059;-50
2022/08/12 02:35:10;;;;;;;7.95;6.40;;;;;;;;;;5109006;28;20039;-48
2022/08/12 02:37:37;;;;;;;4.95;4.47;;;;;;;;;;5109182;28;20047;-49
2022/08/12 02:40:03;;;;;;;7.30;5.03;;;;;;;;;;5110123;28;20059;-53
2022/08/12 02:42:31;;;;;;;4.63;4.22;;;;;;;;;;5110590;28;20059;-53
2022/08/12 02:44:59;;;;;;;5.47;4.57;;;;;;;;;;5108055;28;20055;-51
2022/08/12 02:47:30;;;;;;;5.20;4.70;;;;;;;;;;5108712;28;20115;-52
2022/08/12 02:49:55;;;;;;;5.82;5.20;;;;;;;;;;5108402;28;20830;-51
2022/08/12 02:52:21;;;;;;;6.18;4.65;;;;;;;;;;5110147;28;20537;-49
2022/08/12 02:54:50;;;;;;;6.00;5.05;;;;;;;;;;5110095;28;20550;-49
2022/08/12 02:57:16;;;;;;;5.38;4.88;;;;;;;;;;5109824;28;20047;-50
2022/08/12 02:59:42;;;;;;;5.35;4.85;;;;;;;;;;5109120;28;20058;-49
2022/08/12 03:02:10;;;;;;;5.55;5.05;;;;;;;;;;5109462;28;20047;-50
2022/08/12 03:04:45;;;;;;;6.75;5.22;;;;;;;;;;5108933;28;20144;-47
2022/08/12 03:07:15;;;;;;;8.10;4.32;;;;;;;;;;5109665;28;20522;-50
2022/08/12 03:09:51;;;;;;;10.13;5.10;;;;;;;;;;5108162;28;20135;-46
2022/08/12 03:12:17;;;;;;;4.57;3.95;;;;;;;;;;5108859;28;20063;-47
2022/08/12 03:14:43;;;;;;;5.20;4.60;;;;;;;;;;5107381;28;20036;-50
2022/08/12 03:17:18;;;;;;;9.98;4.95;;;;;;;;;;5109995;28;20632;-52
2022/08/12 03:19:44;;;;;;;6.70;6.00;;;;;;;;;;5109310;28;20118;-51
2022/08/12 03:22:13;;;;;;;5.03;4.63;;;;;;;;;;5106586;28;20490;-49
2022/08/12 03:24:41;;;;;;;16.05;5.20;;;;;;;;;;5109252;28;20079;-48
2022/08/12 03:27:07;;;;;;;6.40;4.70;;;;;;;;;;5107524;28;20054;-48
2022/08/12 03:29:35;;;;;;;5.93;4.32;;;;;;;;;;5107619;28;20902;-50
2022/08/12 03:32:01;;;;;;;7.10;5.50;;;;;;;;;;5109532;28;20063;-50
2022/08/12 03:34:28;;;;;;;6.65;5.38;;;;;;;;;;5109174;28;20036;-50
2022/08/12 03:36:55;;;;;;;4.90;4.45;;;;;;;;;;5109604;28;20100;-52
2022/08/12 03:39:34;;;;;;;6.43;5.55;;;;;;;;;;5108495;28;20148;-52
2022/08/12 03:42:20;;;;;;;4.28;3.85;;;;;;;;;;5087366;28;20055;-48
2022/08/12 04:01:24;;;;;;;6.38;5.78;;;;;;;;;;5107520;28;20454;-47
2022/08/12 04:03:52;;;;;;;5.65;5.15;;;;;;;;;;5103459;28;20051;-46
2022/08/12 04:06:20;;;;;;;5.60;4.28;;;;;;;;;;5108915;28;20331;-47
2022/08/12 04:08:46;;;;;;;7.45;6.45;;;;;;;;;;5106860;28;20077;-50
2022/08/12 04:14:04;;;;;;;5.85;5.35;;;;;;;;;;5107610;28;20046;-46
2022/08/12 04:16:29;;;;;;;6.22;5.63;;;;;;;;;;5106343;28;20083;-48
2022/08/12 04:18:55;;;;;;;13.52;6.55;;;;;;;;;;5105660;28;20395;-47
2022/08/12 04:21:20;;;;;;;10.05;6.22;;;;;;;;;;5108161;28;20126;-46
2022/08/12 04:23:48;;;;;;;5.70;5.13;;;;;;;;;;5107028;28;20040;-48
2022/08/12 04:26:13;;;;;;;8.23;6.45;;;;;;;;;;5106757;28;20046;-46
2022/08/12 04:28:38;;;;;;;7.70;7.00;;;;;;;;;;5104696;28;20554;-46
2022/08/12 04:31:04;;;;;;;5.35;4.85;;;;;;;;;;5107233;28;20502;-50
2022/08/12 04:33:31;;;;;;;9.20;6.15;;;;;;;;;;5108203;28;20402;-50
2022/08/12 04:35:56;;;;;;;8.43;4.75;;;;;;;;;;5107073;28;20058;-48
2022/08/12 04:38:22;;;;;;;8.35;5.53;;;;;;;;;;5102721;28;20039;-50
2022/08/12 04:40:48;;;;;;;5.43;4.60;;;;;;;;;;5104329;28;20436;-48
2022/08/12 04:43:13;;;;;;;7.70;5.10;;;;;;;;;;5106714;28;20035;-47
2022/08/12 04:45:39;;;;;;;23.67;6.00;;;;;;;;;;5107155;28;20093;-48
2022/08/12 04:48:05;;;;;;;6.03;5.45;;;;;;;;;;5107863;28;20047;-49
2022/08/12 04:50:31;;;;;;;12.02;6.60;;;;;;;;;;5107440;28;20036;-50
2022/08/12 04:52:59;;;;;;;7.53;6.90;;;;;;;;;;5105241;28;20410;-49
2022/08/12 04:55:25;;;;;;;7.28;5.60;;;;;;;;;;5106987;28;20100;-44
2022/08/12 04:57:50;;;;;;;9.25;6.00;;;;;;;;;;5106977;28;20051;-47
2022/08/12 05:00:16;;;;;;;8.75;5.90;;;;;;;;;;5107383;28;20083;-48
2022/08/12 05:02:41;;;;;;;6.03;5.15;;;;;;;;;;5106218;28;20051;-48
2022/08/12 05:05:10;;;;;;;7.45;6.68;;;;;;;;;;5107230;28;20093;-48
2022/08/12 05:07:36;;;;;;;15.00;5.35;;;;;;;;;;5101677;28;20139;-49
2022/08/12 05:10:02;;;;;;;16.55;5.65;;;;;;;;;;5104931;28;20111;-48
2022/08/12 05:12:38;;;;;;;9.02;6.18;;;;;;;;;;5105916;28;20047;-46
2022/08/12 05:15:05;;;;;;;7.57;5.20;;;;;;;;;;5102415;28;20631;-51
2022/08/12 05:17:30;;;;;;;11.23;5.93;;;;;;;;;;5104221;28;20036;-49
2022/08/12 05:23:12;;;;;;;7.95;6.53;;;;;;;;;;5092420;28;20406;-48
2022/08/12 05:25:38;;;;;;;7.13;4.10;;;;;;;;;;5104603;28;20070;-50
2022/08/12 05:28:07;;;;;;;7.30;5.68;;;;;;;;;;5106098;28;20613;-51
2022/08/12 05:30:33;;;;;;;10.60;6.35;;;;;;;;;;5106284;28;20036;-46
2022/08/12 05:32:59;;;;;;;9.07;4.55;;;;;;;;;;5105608;28;20051;-46
2022/08/12 05:35:24;;;;;;;6.47;5.82;;;;;;;;;;5104525;28;20034;-50
2022/08/12 05:38:54;;;;;;;6.85;5.43;;;;;;;;;;5105108;28;20058;-50
2022/08/12 05:40:37;;;;;;;4.22;3.80;;;;;;;;;;5104628;28;20043;-47
2022/08/12 05:43:04;;;;;;;6.30;5.68;;;;;;;;;;5105030;28;20051;-47
2022/08/12 05:45:29;;;;;;;5.40;4.90;;;;;;;;;;5104364;28;20059;-47
2022/08/12 05:47:55;;;;;;;12.73;5.68;;;;;;;;;;5104607;28;20050;-50
2022/08/12 05:50:20;;;;;;;8.05;6.15;;;;;;;;;;5102348;28;20091;-49
2022/08/12 05:52:45;;;;;;;7.38;5.97;;;;;;;;;;5103054;28;20043;-47
2022/08/12 05:55:11;;;;;;;5.03;4.53;;;;;;;;;;5104054;28;20283;-48
2022/08/12 05:57:36;;;;;;;11.55;5.68;;;;;;;;;;5102494;28;20561;-47
2022/08/12 06:00:02;;;;;;;7.30;6.55;;;;;;;;;;5103227;28;20050;-49
2022/08/12 06:02:28;;;;;;;24.85;7.35;;;;;;;;;;5101227;28;20043;-48
2022/08/12 06:04:53;;;;;;;20.45;6.72;;;;;;;;;;5103419;28;20043;-47
2022/08/12 06:07:18;;;;;;;10.82;7.95;;;;;;;;;;5105101;28;20525;-50
2022/08/12 06:09:44;;;;;;;18.70;6.97;;;;;;;;;;5103364;28;20558;-46
2022/08/12 06:12:10;;;;;;;7.70;6.47;;;;;;;;;;5103722;28;20073;-50
2022/08/12 06:14:35;;;;;;;13.00;8.52;;;;;;;;;;5105424;28;20128;-47
2022/08/12 06:17:01;;;;;;;8.13;7.28;;;;;;;;;;5103168;28;20118;-47
2022/08/12 06:19:30;;;;;;;7.13;6.35;;;;;;;;;;5101863;28;20083;-47
2022/08/12 06:21:56;;;;;;;8.02;7.30;;;;;;;;;;5102376;28;20414;-48
2022/08/12 06:24:23;;;;;;;9.60;7.50;;;;;;;;;;5101621;28;20050;-45
2022/08/12 06:26:48;;;;;;;10.75;6.65;;;;;;;;;;5104893;28;20047;-48
2022/08/12 06:29:18;;;;;;;12.18;6.35;;;;;;;;;;5102494;28;20123;-44
2022/08/12 06:31:44;;;;;;;8.27;6.78;;;;;;;;;;5105130;28;20220;-44
2022/08/12 06:34:12;;;;;;;7.47;5.72;;;;;;;;;;5104730;28;20118;-49
2022/08/12 06:36:37;;;;;;;9.05;5.57;;;;;;;;;;5105971;28;20100;-49
2022/08/12 06:39:02;;;;;;;4.80;4.40;;;;;;;;;;5105787;28;20120;-49
2022/08/12 06:44:19;;;;;;;13.32;6.32;;;;;;;;;;5105535;28;20081;-45
2022/08/12 06:46:45;;;;;;;12.32;6.47;;;;;;;;;;5106000;28;20059;-47
2022/08/12 06:49:11;;;;;;;9.95;5.78;;;;;;;;;;5106447;28;20138;-48
2022/08/12 06:51:37;;;;;;;6.30;5.38;;;;;;;;;;5105499;28;20035;-48
2022/08/12 06:54:02;;;;;;;12.48;11.18;;;;;;;;;;5107514;28;20043;-46
2022/08/12 06:56:29;;;;;;;5.95;5.05;;;;;;;;;;5109338;28;20135;-46
2022/08/12 06:58:56;;;;;;;5.15;3.70;;;;;;;;;;5108457;28;20084;-47
2022/08/12 07:01:22;;;;;;;5.10;4.55;;;;;;;;;;5108999;28;20059;-47
2022/08/12 07:03:47;;;;;;;5.38;4.53;;;;;;;;;;5109282;28;20043;-51
2022/08/12 07:06:13;;;;;;;6.05;4.30;;;;;;;;;;5108914;28;20047;-48
2022/08/12 07:08:38;;;;;;;8.55;4.40;;;;;;;;;;5106451;28;20077;-44
2022/08/12 07:11:05;;;;;;;7.00;4.68;;;;;;;;;;5109539;28;20092;-50
2022/08/12 07:13:37;;;;;;;4.57;3.05;;;;;;;;;;5109656;28;20044;-48
2022/08/12 07:16:02;;;;;;;6.80;4.90;;;;;;;;;;5107225;28;20051;-48
2022/08/12 07:18:34;;;;;;;6.75;6.20;;;;;;;;;;5109336;28;20048;-52
2022/08/12 07:21:02;;;;;;;9.00;4.43;;;;;;;;;;5104228;28;20508;-51
2022/08/12 07:23:29;;;;;;;7.97;3.30;;;;;;;;;;5108657;28;20075;-50
2022/08/12 07:25:55;;;;;;;10.35;4.22;;;;;;;;;;5106629;28;20051;-47
2022/08/12 07:28:22;;;;;;;4.78;3.60;;;;;;;;;;5107916;28;20152;-44
2022/08/12 07:30:48;;;;;;;4.85;4.13;;;;;;;;;;5107253;28;20047;-46
2022/08/12 07:33:15;;;;;;;16.50;5.78;;;;;;;;;;5108165;28;20296;-46
2022/08/12 07:35:44;;;;;;;4.53;4.05;;;;;;;;;;5107867;28;21077;-48
2022/08/12 07:38:50;;;;;;;4.13;3.72;;;;;;;;;;5109668;28;20039;-49
2022/08/12 07:41:15;;;;;;;6.68;3.30;;;;;;;;;;5026362;28;20053;-47
2022/08/12 07:43:42;;;;;;;5.20;4.70;;;;;;;;;;5025011;28;20650;-46
2022/08/12 07:46:09;;;;;;;12.60;5.25;;;;;;;;;;5064411;28;20503;-48
2022/08/12 07:48:37;;;;;;;9.95;4.28;;;;;;;;;;5108645;28;20824;-49
2022/08/12 07:51:02;;;;;;;6.63;4.78;;;;;;;;;;5106719;28;20055;-46
2022/08/12 07:53:28;;;;;;;12.10;6.43;;;;;;;;;;5106859;28;20088;-49
2022/08/12 07:55:55;;;;;;;7.00;4.88;;;;;;;;;;5105958;28;20731;-50
2022/08/12 07:58:22;;;;;;;4.28;3.40;;;;;;;;;;5108907;28;20127;-49
2022/08/12 08:00:48;;;;;;;3.63;3.03;;;;;;;;;;5108886;28;20127;-46
2022/08/12 08:03:15;;;;;;;4.75;2.88;;;;;;;;;;5108259;28;20146;-47
2022/08/12 08:05:47;;;;;;;4.80;4.00;;;;;;;;;;5106769;28;20073;-46
2022/08/12 08:08:13;;;;;;;6.93;3.30;;;;;;;;;;5108382;28;20047;-48
2022/08/12 08:10:39;;;;;;;9.55;5.20;;;;;;;;;;5108401;28;20046;-45
2022/08/12 08:13:05;;;;;;;3.78;3.28;;;;;;;;;;5107557;28;20122;-48
2022/08/12 08:15:33;;;;;;;9.25;4.07;;;;;;;;;;5107664;28;20126;-45
2022/08/12 08:18:04;;;;;;;10.95;3.30;;;;;;;;;;5107740;28;20452;-47
2022/08/12 08:20:32;;;;;;;12.60;4.55;;;;;;;;;;5108074;28;20051;-44
2022/08/12 08:22:59;;;;;;;4.18;3.25;;;;;;;;;;5106509;28;20048;-49
2022/08/12 08:25:31;;;;;;;3.28;2.63;;;;;;;;;;5106052;28;20039;-48
2022/08/12 08:28:00;;;;;;;5.28;2.92;;;;;;;;;;5106655;28;20051;-44
2022/08/12 08:30:27;;;;;;;4.60;3.35;;;;;;;;;;5106689;28;20130;-44
2022/08/12 08:32:52;;;;;;;4.63;3.70;;;;;;;;;;5107363;28;20039;-48
2022/08/12 08:35:18;;;;;;;4.50;4.10;;;;;;;;;;5107814;28;20084;-44
2022/08/12 08:37:45;;;;;;;5.47;3.78;;;;;;;;;;5107387;28;20089;-48
2022/08/12 08:42:54;;;;;;;14.32;4.38;;;;;;;;;;5106505;28;20065;-43
2022/08/12 08:45:19;;;;;;;6.25;3.63;;;;;;;;;;5106620;28;20557;-55
2022/08/12 08:47:46;;;;;;;4.95;3.78;;;;;;;;;;5106793;28;20128;-52
2022/08/12 08:50:15;;;;;;;6.75;3.33;;;;;;;;;;5105636;28;20040;-50
2022/08/12 08:52:43;;;;;;;10.50;6.88;;;;;;;;;;5107791;28;20063;-45
2022/08/12 08:55:09;;;;;;;5.72;2.88;;;;;;;;;;5105431;28;20039;-46
2022/08/12 08:57:36;;;;;;;4.68;2.78;;;;;;;;;;5106528;28;20051;-44
2022/08/12 09:00:03;;;;;;;8.35;2.42;;;;;;;;;;5107430;28;20138;-47
2022/08/12 09:02:28;;;;;;;2.97;2.67;;;;;;;;;;5106352;28;20458;-45
2022/08/12 09:04:53;;;;;;;3.95;2.78;;;;;;;;;;5107332;28;20058;-48
2022/08/12 09:07:19;;;;;;;12.45;4.65;;;;;;;;;;5106289;28;20054;-46
2022/08/12 09:09:45;;;;;;;3.00;2.10;;;;;;;;;;5103365;28;20089;-48
2022/08/12 09:14:54;;;;;;;4.22;2.47;;;;;;;;;;5106227;28;20066;-46
2022/08/12 09:17:21;;;;;;;3.33;2.83;;;;;;;;;;5105262;28;20718;-49
2022/08/12 09:19:46;;;;;;;6.95;4.30;;;;;;;;;;5107601;28;20136;-49
2022/08/12 09:22:12;;;;;;;2.92;2.42;;;;;;;;;;5107563;28;20140;-49
2022/08/12 09:24:37;;;;;;;4.53;2.38;;;;;;;;;;5106065;28;20059;-46
2022/08/12 09:27:05;;;;;;;2.60;1.95;;;;;;;;;;5103925;28;20044;-49
2022/08/12 09:29:32;;;;;;;5.40;2.75;;;;;;;;;;5106473;28;20039;-46
2022/08/12 09:31:58;;;;;;;1.52;1.30;;;;;;;;;;5106473;28;20043;-50
2022/08/12 09:34:26;;;;;;;3.25;2.25;;;;;;;;;;5104569;28;20054;-49
2022/08/12 09:36:52;;;;;;;10.93;4.38;;;;;;;;;;5102029;28;20051;-50
2022/08/12 09:39:17;;;;;;;10.05;4.80;;;;;;;;;;5104856;28;20054;-46
2022/08/12 09:41:43;;;;;;;3.85;3.03;;;;;;;;;;5102578;28;20054;-52
2022/08/12 09:46:53;;;;;;;3.25;2.88;;;;;;;;;;5101008;28;20046;-47
2022/08/12 09:49:20;;;;;;;10.40;3.63;;;;;;;;;;5106206;28;20039;-47
2022/08/12 09:51:46;;;;;;;3.13;2.78;;;;;;;;;;5106036;28;20138;-47
2022/08/12 09:54:12;;;;;;;3.22;2.35;;;;;;;;;;5103899;28;20040;-46
2022/08/12 09:56:41;;;;;;;4.68;3.28;;;;;;;;;;5104490;28;20691;-45
2022/08/12 09:59:08;;;;;;;5.18;2.83;;;;;;;;;;5107037;28;20059;-47
2022/08/12 10:01:37;;;;;;;3.40;2.88;;;;;;;;;;5106067;28;20482;-44
2022/08/12 10:04:09;;;;;;;3.53;2.20;;;;;;;;;;5105346;28;20056;-48
2022/08/12 10:06:37;;;;;;;7.45;3.70;;;;;;;;;;5106765;28;20135;-45
2022/08/12 10:09:05;;;;;;;7.60;3.65;;;;;;;;;;5105999;28;20074;-51
2022/08/12 10:14:15;;;;;;;4.82;3.05;;;;;;;;;;5106080;28;20556;-48
2022/08/12 10:16:43;;;;;;;4.60;2.85;;;;;;;;;;5105319;28;20047;-47
2022/08/12 10:19:08;;;;;;;4.13;3.03;;;;;;;;;;5102286;28;20131;-50
2022/08/12 10:21:39;;;;;;;4.72;3.75;;;;;;;;;;5105895;28;20138;-50
2022/08/12 10:24:14;;;;;;;4.88;3.25;;;;;;;;;;5106861;28;20051;-52
2022/08/12 10:29:43;;;;;;;7.13;3.60;;;;;;;;;;5105620;28;20066;-48
2022/08/12 10:32:11;;;;;;;7.10;4.10;;;;;;;;;;5109062;28;20047;-48
2022/08/12 10:34:36;;;;;;;8.80;3.25;;;;;;;;;;5109728;28;20088;-48
2022/08/12 10:37:02;;;;;;;4.10;3.38;;;;;;;;;;5109383;28;20468;-55
2022/08/12 10:39:34;;;;;;;2.72;2.45;;;;;;;;;;5108959;28;20044;-51
2022/08/12 10:44:47;;;;;;;4.07;3.22;;;;;;;;;;5091654;28;20050;-52
2022/08/12 10:47:15;;;;;;;6.05;2.55;;;;;;;;;;5108065;28;20040;-47
2022/08/12 10:49:41;;;;;;;4.63;3.13;;;;;;;;;;5108212;28;20098;-52
2022/08/12 10:52:06;;;;;;;3.65;2.50;;;;;;;;;;5109486;28;20059;-48
2022/08/12 10:54:32;;;;;;;5.25;3.40;;;;;;;;;;5106740;28;20044;-46
2022/08/12 10:56:59;;;;;;;4.85;3.42;;;;;;;;;;5108398;28;20048;-51
2022/08/12 10:59:25;;;;;;;3.60;3.00;;;;;;;;;;5083051;28;20040;-49
2022/08/12 11:01:51;;;;;;;4.28;3.00;;;;;;;;;;5109410;28;20131;-50
2022/08/12 11:04:16;;;;;;;4.70;3.13;;;;;;;;;;5108188;28;20050;-53
2022/08/12 11:06:52;;;;;;;2.85;1.73;;;;;;;;;;5109324;28;20267;-52
2022/08/12 11:09:19;;;;;;;6.15;3.80;;;;;;;;;;5107467;28;20386;-50
2022/08/12 11:11:47;;;;;;;3.50;2.80;;;;;;;;;;5107470;28;20039;-49
2022/08/12 11:14:16;;;;;;;5.72;3.03;;;;;;;;;;5108773;28;20098;-48
2022/08/12 11:16:42;;;;;;;5.93;3.85;;;;;;;;;;5107985;28;20521;-47
2022/08/12 11:19:07;;;;;;;11.80;3.20;;;;;;;;;;5109092;28;20051;-51
2022/08/12 11:21:32;;;;;;;3.22;2.50;;;;;;;;;;5109118;28;20542;-52
2022/08/12 11:23:58;;;;;;;7.82;3.05;;;;;;;;;;5109104;28;20491;-53
2022/08/12 11:26:23;;;;;;;4.68;3.33;;;;;;;;;;5109039;28;20058;-49
2022/08/12 11:28:48;;;;;;;7.65;3.45;;;;;;;;;;5109236;28;20057;-51
2022/08/12 11:31:13;;;;;;;4.07;3.70;;;;;;;;;;5106950;28;20452;-48
2022/08/12 11:33:39;;;;;;;3.15;2.47;;;;;;;;;;5108337;28;20343;-52
2022/08/12 11:36:06;;;;;;;5.38;3.72;;;;;;;;;;5106695;28;20040;-49
2022/08/12 11:38:31;;;;;;;6.18;3.30;;;;;;;;;;5108387;28;20036;-51
2022/08/12 11:40:56;;;;;;;2.70;2.20;;;;;;;;;;5108975;28;20050;-45
2022/08/12 11:43:22;;;;;;;4.47;3.70;;;;;;;;;;5107334;28;20075;-49
2022/08/12 11:45:47;;;;;;;2.83;2.35;;;;;;;;;;5108465;28;20096;-52
2022/08/12 11:48:12;;;;;;;4.25;3.85;;;;;;;;;;5106612;28;20066;-54
2022/08/12 11:50:38;;;;;;;4.03;2.50;;;;;;;;;;5107818;28;20568;-50
2022/08/12 11:53:03;;;;;;;1.95;1.67;;;;;;;;;;5108242;28;20575;-54
2022/08/12 11:55:29;;;;;;;3.72;2.38;;;;;;;;;;5108317;28;20507;-52
2022/08/12 11:57:55;;;;;;;7.10;3.97;;;;;;;;;;5105659;28;20075;-52
2022/08/12 12:00:21;;;;;;;3.38;2.53;;;;;;;;;;5105646;28;20047;-52
2022/08/12 12:02:46;;;;;;;4.75;3.45;;;;;;;;;;5089464;28;20044;-50
2022/08/12 12:05:14;;;;;;;2.22;1.90;;;;;;;;;;5107714;28;20506;-53
2022/08/12 12:07:40;;;;;;;3.80;3.03;;;;;;;;;;5106957;28;20161;-51
2022/08/12 12:10:05;;;;;;;3.72;2.63;;;;;;;;;;5105228;28;20440;-52
2022/08/12 12:12:31;;;;;;;6.22;3.20;;;;;;;;;;5107440;28;20092;-48
2022/08/12 12:14:57;;;;;;;3.60;2.28;;;;;;;;;;5106822;28;20533;-54
2022/08/12 12:17:23;;;;;;;3.53;2.70;;;;;;;;;;5108622;28;20048;-49
2022/08/12 12:19:48;;;;;;;28.33;4.47;;;;;;;;;;5107638;28;20608;-49
2022/08/12 12:22:13;;;;;;;5.88;4.38;;;;;;;;;;5108769;28;20094;-52
2022/08/12 12:24:45;;;;;;;18.15;5.13;;;;;;;;;;5109060;28;20526;-50
2022/08/12 12:27:10;;;;;;;2.70;2.00;;;;;;;;;;5107404;28;20605;-50
2022/08/12 12:29:36;;;;;;;10.23;3.90;;;;;;;;;;5107985;28;20135;-53
2022/08/12 12:32:01;;;;;;;5.40;3.80;;;;;;;;;;5103713;28;20143;-52
2022/08/12 12:34:26;;;;;;;3.17;2.63;;;;;;;;;;5107724;28;20055;-55
2022/08/12 12:36:51;;;;;;;7.18;1.65;;;;;;;;;;5106960;28;20043;-53
2022/08/12 12:39:17;;;;;;;4.72;3.40;;;;;;;;;;5107692;28;20051;-49
2022/08/12 12:41:42;;;;;;;2.83;2.22;;;;;;;;;;5108170;28;20507;-48
2022/08/12 12:44:07;;;;;;;2.33;1.77;;;;;;;;;;5106860;28;20063;-51
2022/08/12 12:46:33;;;;;;;4.35;3.42;;;;;;;;;;5104333;28;20052;-52
2022/08/12 12:48:58;;;;;;;3.20;2.72;;;;;;;;;;5104714;28;20039;-51
2022/08/12 12:51:23;;;;;;;2.83;2.30;;;;;;;;;;5105523;28;20051;-52
2022/08/12 12:53:49;;;;;;;10.73;8.50;;;;;;;;;;5107284;28;20543;-51
2022/08/12 12:56:22;;;;;;;2.97;1.77;;;;;;;;;;5106738;28;20114;-54
2022/08/12 12:58:51;;;;;;;4.90;3.08;;;;;;;;;;5107587;28;20725;-52
2022/08/12 13:01:18;;;;;;;8.70;2.60;;;;;;;;;;5106853;28;20039;-52
2022/08/12 13:03:44;;;;;;;2.65;2.22;;;;;;;;;;5106740;28;20048;-54
2022/08/12 13:06:10;;;;;;;2.85;2.05;;;;;;;;;;5106934;28;20062;-48
2022/08/12 13:08:36;;;;;;;3.40;1.92;;;;;;;;;;5106118;28;20483;-49
2022/08/12 13:11:02;;;;;;;4.15;2.97;;;;;;;;;;5105558;28;20464;-51
2022/08/12 13:13:29;;;;;;;6.22;2.25;;;;;;;;;;5106013;28;20067;-53
2022/08/12 13:15:55;;;;;;;2.22;1.85;;;;;;;;;;5105996;28;20118;-50
2022/08/12 13:18:20;;;;;;;5.43;2.45;;;;;;;;;;5107275;28;20138;-55
2022/08/12 13:20:46;;;;;;;5.53;1.90;;;;;;;;;;5104663;28;20147;-49
2022/08/12 13:23:12;;;;;;;3.40;2.45;;;;;;;;;;5105251;28;20096;-50
2022/08/12 13:25:40;;;;;;;2.65;1.95;;;;;;;;;;5106453;28;20046;-50
2022/08/12 13:28:07;;;;;;;3.00;1.90;;;;;;;;;;5104607;28;20052;-54
2022/08/12 13:30:33;;;;;;;2.35;1.95;;;;;;;;;;5106464;28;20032;-46
2022/08/12 13:32:59;;;;;;;4.15;2.83;;;;;;;;;;5106119;28;20066;-50
2022/08/12 13:35:25;;;;;;;6.60;3.30;;;;;;;;;;5106420;28;20502;-54
2022/08/12 13:37:54;;;;;;;4.50;1.38;;;;;;;;;;5105475;28;20048;-52
2022/08/12 13:40:20;;;;;;;3.00;2.08;;;;;;;;;;5104803;28;20051;-51
2022/08/12 13:42:47;;;;;;;6.03;3.17;;;;;;;;;;5105533;28;20036;-50
2022/08/12 13:45:14;;;;;;;2.33;1.83;;;;;;;;;;5107119;28;20043;-51
2022/08/12 13:47:54;;;;;;;5.03;2.63;;;;;;;;;;5105575;28;20136;-49
2022/08/12 13:50:19;;;;;;;6.15;2.05;;;;;;;;;;5105508;28;20055;-51
2022/08/12 13:52:44;;;;;;;3.40;2.63;;;;;;;;;;5105385;28;20367;-49
2022/08/12 13:55:10;;;;;;;6.22;3.67;;;;;;;;;;5087513;28;20043;-46
2022/08/12 13:57:42;;;;;;;9.10;3.33;;;;;;;;;;5105693;28;20051;-47
2022/08/12 14:00:08;;;;;;;5.00;2.97;;;;;;;;;;5105537;28;20619;-51
2022/08/12 14:02:34;;;;;;;3.80;3.42;;;;;;;;;;5103964;28;20055;-51
2022/08/12 14:04:59;;;;;;;4.38;2.90;;;;;;;;;;5101979;28;20055;-50
2022/08/12 14:07:25;;;;;;;5.28;2.75;;;;;;;;;;5105784;28;20124;-54
2022/08/12 14:12:38;;;;;;;7.47;2.90;;;;;;;;;;5105256;28;20106;-50
2022/08/12 14:15:06;;;;;;;2.63;2.42;;;;;;;;;;5106709;28;20546;-54
2022/08/12 14:17:31;;;;;;;3.53;2.78;;;;;;;;;;5106267;28;20117;-49
2022/08/12 14:22:51;;;;;;;4.13;2.38;;;;;;;;;;5076183;28;20126;-52
2022/08/12 14:25:16;;;;;;;3.88;2.03;;;;;;;;;;5083254;28;20116;-52
2022/08/12 14:27:43;;;;;;;7.80;3.35;;;;;;;;;;5105311;28;20052;-48
2022/08/12 14:30:09;;;;;;;3.55;2.10;;;;;;;;;;5107020;28;20047;-51
2022/08/12 14:32:34;;;;;;;13.70;3.60;;;;;;;;;;5106771;28;20039;-47
2022/08/12 14:34:59;;;;;;;3.63;2.28;;;;;;;;;;5106167;28;20044;-53
2022/08/12 14:37:25;;;;;;;2.83;2.50;;;;;;;;;;5105842;28;20083;-51
2022/08/12 14:39:50;;;;;;;4.28;3.17;;;;;;;;;;5106491;28;20055;-53
2022/08/12 14:42:16;;;;;;;4.72;2.58;;;;;;;;;;5105274;28;20041;-50
2022/08/12 14:44:41;;;;;;;3.33;2.88;;;;;;;;;;5106088;28;20043;-54
2022/08/12 14:47:07;;;;;;;4.47;2.30;;;;;;;;;;5106152;28;20529;-51
2022/08/12 14:49:32;;;;;;;3.15;2.83;;;;;;;;;;5103795;28;20043;-52
2022/08/12 14:51:58;;;;;;;2.53;2.08;;;;;;;;;;5105324;28;20071;-52
2022/08/12 14:54:23;;;;;;;4.18;2.17;;;;;;;;;;5104313;28;20573;-52
2022/08/12 14:56:49;;;;;;;3.75;2.72;;;;;;;;;;5106333;28;20043;-49
2022/08/12 15:01:59;;;;;;;14.85;3.38;;;;;;;;;;5085205;28;20125;-51
2022/08/12 15:04:27;;;;;;;3.95;2.60;;;;;;;;;;5082057;28;20060;-52
2022/08/12 15:06:53;;;;;;;3.45;3.15;;;;;;;;;;5097949;28;20542;-51
2022/08/12 15:09:19;;;;;;;4.72;2.85;;;;;;;;;;5105586;28;20048;-53
2022/08/12 15:11:47;;;;;;;16.55;3.40;;;;;;;;;;5105299;28;20039;-53
2022/08/12 15:14:12;;;;;;;1.90;1.60;;;;;;;;;;5105931;28;20047;-55
2022/08/12 15:16:37;;;;;;;13.57;3.60;;;;;;;;;;5108369;28;20513;-54
2022/08/12 15:19:03;;;;;;;2.95;2.65;;;;;;;;;;5109737;28;20560;-50
2022/08/12 15:21:28;;;;;;;3.78;2.53;;;;;;;;;;5108639;28;20039;-55
2022/08/12 15:23:53;;;;;;;3.22;2.60;;;;;;;;;;5107441;28;20453;-53
2022/08/12 15:26:19;;;;;;;3.08;2.60;;;;;;;;;;5107524;28;20059;-48
2022/08/12 15:28:45;;;;;;;4.32;2.75;;;;;;;;;;5109215;28;20043;-51
2022/08/12 15:31:15;;;;;;;3.03;2.47;;;;;;;;;;5108172;28;20533;-54
2022/08/12 15:33:41;;;;;;;6.90;3.13;;;;;;;;;;5107094;28;20135;-49
2022/08/12 15:36:07;;;;;;;14.90;3.45;;;;;;;;;;5109028;28;20040;-52
2022/08/12 15:38:34;;;;;;;3.45;2.05;;;;;;;;;;5108193;28;20044;-51
2022/08/12 15:41:00;;;;;;;4.25;3.22;;;;;;;;;;5106850;28;20043;-53
2022/08/12 15:43:28;;;;;;;3.72;2.60;;;;;;;;;;5107085;28;20414;-51
2022/08/12 15:45:55;;;;;;;2.85;2.53;;;;;;;;;;5108185;28;20039;-53
2022/08/12 15:48:20;;;;;;;3.10;2.42;;;;;;;;;;5108926;28;20904;-51
2022/08/12 15:50:45;;;;;;;1.92;1.45;;;;;;;;;;5106822;28;20044;-52
2022/08/12 15:53:11;;;;;;;4.10;3.35;;;;;;;;;;5108693;28;20043;-52
2022/08/12 15:55:37;;;;;;;4.70;2.83;;;;;;;;;;5107722;28;20059;-51
2022/08/12 15:58:02;;;;;;;3.03;2.45;;;;;;;;;;5108158;28;20051;-48
2022/08/12 16:00:35;;;;;;;5.20;3.10;;;;;;;;;;5109229;28;20047;-53
2022/08/12 16:03:06;;;;;;;7.07;2.67;;;;;;;;;;5106658;28;20043;-52
2022/08/12 16:05:33;;;;;;;3.50;3.17;;;;;;;;;;5107517;28;20070;-51
2022/08/12 16:07:59;;;;;;;6.72;4.15;;;;;;;;;;5107923;28;20146;-50
2022/08/12 16:10:26;;;;;;;2.28;1.95;;;;;;;;;;5086088;28;20046;-54
2022/08/12 16:12:52;;;;;;;4.57;2.92;;;;;;;;;;5090240;28;20101;-49
2022/08/12 16:15:19;;;;;;;8.23;7.45;;;;;;;;;;5108315;28;20130;-50
2022/08/12 16:17:45;;;;;;;6.47;5.20;;;;;;;;;;5107897;28;20044;-51
2022/08/12 16:20:16;;;;;;;8.00;3.78;;;;;;;;;;5107656;28;20032;-52
2022/08/12 16:22:44;;;;;;;7.03;2.95;;;;;;;;;;5108534;28;20108;-55
2022/08/12 16:25:10;;;;;;;6.18;2.13;;;;;;;;;;5105211;28;20134;-48
2022/08/12 16:27:36;;;;;;;5.13;3.17;;;;;;;;;;5106423;28;20048;-52
2022/08/12 16:30:03;;;;;;;3.60;3.08;;;;;;;;;;5107897;28;20413;-52
2022/08/12 16:32:31;;;;;;;5.68;3.58;;;;;;;;;;5106242;28;20140;-53